Greybull, Wyoming
Current Conditions -  °F | °C
As of 9:53 PM on Wednesday 26 Nov 2014 (Local Time) from KGEY Reporting Station
Overcast Overcast  
Wind Chill: 16°   Ceiling: 500
Heat Index: 22°   Visibility: 8mi
Dew Point: 21°   Wind: 5mph
Humidity: 96%   Direction: 120°ESE
Pressure: 30.19"   Gusts: NA
Location:  44.49°N, 108.06°W
Report Text: KGEY 270453Z AUTO 12004KT 8SM OVC005 M06/M06 A3019 RMK AO2 CIG 002V007 SLP268 T10561061
Loading
Personal Weather Stations






























Interactive Weather Map New forecast layout! Learn more

10-Day Weather Forecast

Advertisements
Track Severe Weather on mobile